createdAt,value
2023-02-23T00:00:27.826Z,8.47
2023-02-23T00:03:11.908Z,13.27
2023-02-23T00:05:57.207Z,13.13
2023-02-23T00:08:41.407Z,9.23
2023-02-23T00:11:27.150Z,8.07
2023-02-23T00:14:11.055Z,10.87
2023-02-23T00:16:54.836Z,7.83
2023-02-23T00:19:38.909Z,4.47
2023-02-23T00:22:25.734Z,11.53
2023-02-23T00:25:11.715Z,9.20
2023-02-23T00:27:57.035Z,10.40
2023-02-23T00:30:41.006Z,6.40
2023-02-23T00:33:26.752Z,10.30
2023-02-23T00:36:13.585Z,9.07
2023-02-23T00:39:00.836Z,10.07
2023-02-23T00:41:44.741Z,11.80
2023-02-23T00:44:28.590Z,8.90
2023-02-23T00:47:12.579Z,9.57
2023-02-23T00:49:56.318Z,9.17
2023-02-23T00:52:41.116Z,6.87
2023-02-23T00:55:26.335Z,9.90
2023-02-23T00:58:10.147Z,8.33
2023-02-23T01:00:54.998Z,8.00
2023-02-23T01:03:41.423Z,9.23
2023-02-23T01:06:26.265Z,9.90
2023-02-23T01:09:11.817Z,6.40
2023-02-23T01:12:01.604Z,9.87
2023-02-23T01:14:46.534Z,7.67
2023-02-23T01:17:31.719Z,9.83
2023-02-23T01:20:19.461Z,6.53
2023-02-23T01:23:04.313Z,9.27
2023-02-23T01:25:48.122Z,8.40
2023-02-23T01:28:33.407Z,9.40
2023-02-23T01:31:19.101Z,11.27
2023-02-23T01:34:04.613Z,5.87
2023-02-23T01:36:48.554Z,7.23
2023-02-23T01:39:33.951Z,8.40
2023-02-23T01:42:19.640Z,5.90
2023-02-23T01:45:35.876Z,10.23
2023-02-23T01:48:22.977Z,7.10
2023-02-23T01:51:13.137Z,6.57
2023-02-23T01:54:01.416Z,11.00
2023-02-23T01:56:49.326Z,8.43
2023-02-23T01:59:38.665Z,8.37
2023-02-23T02:02:33.358Z,16.27
2023-02-23T02:05:18.380Z,15.23
2023-02-23T02:08:10.413Z,14.23
2023-02-23T02:10:57.579Z,12.60
2023-02-23T02:13:41.451Z,12.13
2023-02-23T02:16:39.593Z,12.80
2023-02-23T02:19:55.594Z,13.37
2023-02-23T02:23:15.076Z,9.10
2023-02-23T02:26:08.125Z,8.90
2023-02-23T02:29:26.437Z,7.97
2023-02-23T02:32:55.445Z,8.27
2023-02-23T02:36:04.233Z,7.93
2023-02-23T02:38:58.931Z,10.40
2023-02-23T02:41:51.347Z,7.87
2023-02-23T02:44:44.181Z,5.47
2023-02-23T02:47:35.334Z,6.53
2023-02-23T02:50:31.548Z,7.47
2023-02-23T02:53:25.001Z,7.93
2023-02-23T02:56:12.789Z,6.10
2023-02-23T02:58:57.503Z,8.07
2023-02-23T03:01:59.236Z,8.33
2023-02-23T03:05:01.035Z,7.10
2023-02-23T03:08:12.715Z,10.00
2023-02-23T03:11:21.247Z,9.80
2023-02-23T03:14:36.352Z,7.10
2023-02-23T03:17:46.790Z,7.60
2023-02-23T03:21:00.449Z,8.40
2023-02-23T03:24:11.912Z,8.77
2023-02-23T03:27:16.983Z,7.17
2023-02-23T03:30:23.815Z,9.87
2023-02-23T03:33:31.723Z,8.50
2023-02-23T03:36:37.811Z,10.13
2023-02-23T03:39:45.605Z,8.87
2023-02-23T03:42:53.978Z,9.23
2023-02-23T03:45:58.700Z,10.73
2023-02-23T03:49:04.417Z,10.97
2023-02-23T03:52:10.721Z,11.17
2023-02-23T03:55:17.215Z,10.43
2023-02-23T03:58:21.295Z,8.40
2023-02-23T04:01:28.069Z,8.33
2023-02-23T04:04:30.476Z,8.33
2023-02-23T04:07:35.523Z,9.43
2023-02-23T04:10:37.037Z,12.40
2023-02-23T04:13:24.318Z,10.77
2023-02-23T04:16:10.361Z,12.77
2023-02-23T04:18:54.746Z,11.10
2023-02-23T04:21:38.484Z,9.80
2023-02-23T04:24:22.396Z,8.23
2023-02-23T04:27:06.427Z,14.30
2023-02-23T04:29:50.404Z,10.43
2023-02-23T04:32:35.730Z,9.87
2023-02-23T04:35:19.712Z,8.20
2023-02-23T04:38:03.674Z,10.07
2023-02-23T04:40:47.411Z,9.43
2023-02-23T04:43:31.184Z,6.93
2023-02-23T04:46:15.038Z,7.50
2023-02-23T04:49:00.417Z,6.30
2023-02-23T04:51:44.334Z,6.60
2023-02-23T04:54:28.395Z,10.17
2023-02-23T04:57:12.351Z,7.87
2023-02-23T04:59:56.319Z,9.23
2023-02-23T05:02:40.465Z,7.00
2023-02-23T05:05:25.878Z,8.23
2023-02-23T05:08:09.688Z,8.70
2023-02-23T05:10:53.549Z,8.77
2023-02-23T05:13:37.563Z,9.83
2023-02-23T05:16:21.447Z,8.70
2023-02-23T05:19:05.465Z,9.00
2023-02-23T05:21:51.056Z,11.90
2023-02-23T05:24:35.537Z,9.03
2023-02-23T05:27:19.641Z,12.60
2023-02-23T05:30:03.758Z,9.53
2023-02-23T05:32:47.768Z,13.33
2023-02-23T05:35:31.574Z,10.13
2023-02-23T05:38:16.743Z,14.37
2023-02-23T05:41:00.491Z,9.10
2023-02-23T05:43:44.589Z,11.43
2023-02-23T05:46:29.504Z,10.37
2023-02-23T05:49:13.333Z,9.30
2023-02-23T05:51:57.166Z,11.50
2023-02-23T05:54:42.360Z,15.03
2023-02-23T05:57:26.220Z,12.17
2023-02-23T06:00:12.165Z,13.10
2023-02-23T06:02:56.579Z,8.93
2023-02-23T06:05:40.514Z,8.97
2023-02-23T06:08:25.159Z,9.83
2023-02-23T06:11:10.892Z,13.03
2023-02-23T06:13:55.367Z,10.93
2023-02-23T06:16:39.448Z,9.27
2023-02-23T06:19:23.374Z,8.07
2023-02-23T06:22:07.288Z,9.67
2023-02-23T06:24:51.070Z,12.30
2023-02-23T06:27:36.398Z,12.63
2023-02-23T06:30:20.412Z,12.37
2023-02-23T06:33:05.422Z,10.93
2023-02-23T06:35:49.517Z,9.00
2023-02-23T06:38:33.312Z,8.50
2023-02-23T06:41:18.170Z,11.20
2023-02-23T06:44:03.658Z,9.53
2023-02-23T06:46:47.601Z,6.83
2023-02-23T06:49:31.626Z,9.40
2023-02-23T06:52:15.979Z,5.80
2023-02-23T06:54:59.793Z,11.53
2023-02-23T06:57:44.195Z,9.83
2023-02-23T07:00:30.626Z,8.70
2023-02-23T07:03:14.485Z,8.23
2023-02-23T07:05:58.235Z,7.03
2023-02-23T07:08:42.116Z,7.83
2023-02-23T07:11:26.067Z,9.80
2023-02-23T07:14:15.298Z,8.73
2023-02-23T07:17:07.738Z,10.57
2023-02-23T07:19:51.586Z,9.97
2023-02-23T07:22:35.631Z,6.43
2023-02-23T07:25:19.589Z,8.57
2023-02-23T07:28:04.239Z,7.33
2023-02-23T07:30:48.237Z,6.87
2023-02-23T07:33:33.791Z,7.03
2023-02-23T07:36:17.579Z,8.40
2023-02-23T07:39:01.613Z,7.50
2023-02-23T07:41:45.778Z,8.33
2023-02-23T07:44:35.112Z,28.40
2023-02-23T07:47:18.845Z,9.93
2023-02-23T07:50:08.161Z,10.90
2023-02-23T07:52:52.486Z,17.30
2023-02-23T07:55:38.408Z,8.83
2023-02-23T07:58:22.217Z,9.73
2023-02-23T08:01:07.039Z,25.63
2023-02-23T08:03:51.060Z,11.07
2023-02-23T08:06:36.356Z,13.00
2023-02-23T08:09:20.258Z,8.70
2023-02-23T08:12:04.068Z,9.83
2023-02-23T08:14:47.853Z,11.03
2023-02-23T08:17:31.765Z,14.57
2023-02-23T08:20:15.822Z,7.70
2023-02-23T08:23:01.072Z,5.97
2023-02-23T08:25:44.898Z,6.20
2023-02-23T08:28:29.748Z,5.83
2023-02-23T08:31:14.344Z,3.70
2023-02-23T08:33:58.135Z,6.77
2023-02-23T08:36:43.648Z,3.37
2023-02-23T08:39:30.538Z,6.60
2023-02-23T08:42:14.804Z,5.13
2023-02-23T08:44:59.292Z,11.60
2023-02-23T08:47:43.451Z,4.63
2023-02-23T08:50:27.608Z,5.00
2023-02-23T08:53:11.442Z,4.10
2023-02-23T08:56:01.767Z,5.87
2023-02-23T08:58:45.649Z,5.43
2023-02-23T09:01:29.659Z,4.07
2023-02-23T09:04:13.452Z,4.20
2023-02-23T09:06:57.247Z,5.30
2023-02-23T09:09:41.178Z,5.63
2023-02-23T09:12:26.686Z,4.30
2023-02-23T09:15:11.398Z,3.13
2023-02-23T09:17:55.406Z,4.53
2023-02-23T09:20:42.958Z,4.27
2023-02-23T09:23:29.871Z,3.80
2023-02-23T09:26:13.778Z,4.53
2023-02-23T09:29:00.421Z,7.57
2023-02-23T09:31:44.543Z,4.87
2023-02-23T09:34:30.810Z,5.30
2023-02-23T09:37:14.636Z,4.73
2023-02-23T09:39:58.415Z,3.40
2023-02-23T09:42:49.162Z,3.23
2023-02-23T09:45:41.994Z,3.97
2023-02-23T09:48:29.724Z,4.47
2023-02-23T09:51:20.078Z,3.87
2023-02-23T09:54:04.979Z,5.43
2023-02-23T09:56:51.227Z,8.53
2023-02-23T09:59:36.248Z,5.90
2023-02-23T10:02:34.588Z,9.43
2023-02-23T10:05:18.855Z,4.40
2023-02-23T10:08:09.375Z,4.67
2023-02-23T10:11:03.821Z,5.33
2023-02-23T10:13:57.428Z,2.80
2023-02-23T10:16:54.088Z,5.37
2023-02-23T10:19:45.699Z,6.50
2023-02-23T10:22:30.399Z,7.90
2023-02-23T10:25:16.052Z,6.97
2023-02-23T10:28:01.669Z,9.77
2023-02-23T10:30:46.697Z,15.17
2023-02-23T10:33:36.090Z,22.90
2023-02-23T10:36:32.876Z,9.70
2023-02-23T10:39:16.656Z,5.37
2023-02-23T10:42:03.405Z,16.73
2023-02-23T10:44:48.192Z,6.47
2023-02-23T10:47:35.915Z,4.57
2023-02-23T10:50:22.651Z,4.30
2023-02-23T10:53:17.746Z,3.83
2023-02-23T10:56:04.936Z,4.03
2023-02-23T10:58:50.608Z,5.77
2023-02-23T11:01:41.758Z,5.93
2023-02-23T11:04:31.013Z,4.13
2023-02-23T11:07:20.577Z,7.90
2023-02-23T11:10:27.625Z,4.13
2023-02-23T11:13:24.212Z,8.33
2023-02-23T11:16:13.312Z,6.73
2023-02-23T11:18:59.695Z,5.23
2023-02-23T11:21:52.590Z,4.20
2023-02-23T11:24:38.935Z,6.60
2023-02-23T11:27:27.208Z,3.97
2023-02-23T11:30:14.242Z,3.87
2023-02-23T11:33:02.591Z,7.67
2023-02-23T11:35:47.786Z,5.40
2023-02-23T11:38:33.316Z,9.40
2023-02-23T11:41:23.623Z,6.50
2023-02-23T11:44:19.726Z,5.13
2023-02-23T11:47:05.046Z,2.70
2023-02-23T11:49:50.172Z,5.97
2023-02-23T11:52:34.193Z,6.83
2023-02-23T11:55:20.362Z,5.80
2023-02-23T11:58:19.314Z,6.77
2023-02-23T12:01:12.090Z,10.00
2023-02-23T12:03:58.374Z,8.40
2023-02-23T12:06:43.463Z,8.37
2023-02-23T12:09:30.760Z,7.30
2023-02-23T12:12:18.325Z,6.97
2023-02-23T12:15:09.565Z,3.53
2023-02-23T12:17:59.594Z,6.33
2023-02-23T12:20:49.013Z,4.63
2023-02-23T12:23:38.112Z,6.10
2023-02-23T12:26:23.984Z,7.17
2023-02-23T12:29:19.858Z,5.23
2023-02-23T12:32:08.450Z,6.40
2023-02-23T12:34:57.989Z,8.40
2023-02-23T12:37:46.343Z,10.17
2023-02-23T12:40:34.085Z,6.20
2023-02-23T12:43:26.119Z,5.90
2023-02-23T12:46:15.889Z,7.63
2023-02-23T12:49:07.908Z,8.20
2023-02-23T12:51:58.062Z,7.43
2023-02-23T12:54:42.139Z,6.13
2023-02-23T12:57:38.817Z,5.23
2023-02-23T13:00:40.437Z,4.47
2023-02-23T13:03:41.493Z,5.60
2023-02-23T13:06:37.003Z,6.77
2023-02-23T13:09:34.143Z,5.03
2023-02-23T13:12:31.890Z,4.87
2023-02-23T13:15:23.885Z,12.23
2023-02-23T13:18:16.105Z,7.10
2023-02-23T13:21:09.062Z,5.63
2023-02-23T13:24:01.723Z,6.13
2023-02-23T13:26:54.680Z,4.20
2023-02-23T13:29:41.579Z,7.93
2023-02-23T13:32:32.057Z,6.87
2023-02-23T13:35:17.617Z,4.93
2023-02-23T13:38:10.202Z,7.00
2023-02-23T13:41:01.033Z,10.83
2023-02-23T13:43:52.258Z,3.70
2023-02-23T13:46:44.686Z,3.60
2023-02-23T13:49:39.364Z,9.73
2023-02-23T13:52:33.505Z,6.93
2023-02-23T13:55:48.644Z,9.97
2023-02-23T13:58:33.965Z,14.53
2023-02-23T14:01:23.669Z,7.03
2023-02-23T14:04:14.830Z,6.23
2023-02-23T14:07:04.847Z,11.03
2023-02-23T14:09:55.030Z,11.63
2023-02-23T14:12:41.155Z,7.53
2023-02-23T14:15:43.656Z,8.63
2023-02-23T14:18:35.193Z,9.03
2023-02-23T14:21:30.425Z,9.03
2023-02-23T14:24:23.140Z,5.47
2023-02-23T14:27:43.917Z,13.50
2023-02-23T14:30:28.980Z,10.83
2023-02-23T14:33:39.478Z,8.00
2023-02-23T14:36:35.866Z,7.70
2023-02-23T14:39:25.547Z,10.67
2023-02-23T14:42:09.640Z,8.63
2023-02-23T14:44:55.409Z,9.23
2023-02-23T14:47:47.354Z,11.13
2023-02-23T14:50:34.832Z,9.77
2023-02-23T14:53:23.064Z,8.60
2023-02-23T14:56:19.701Z,7.47
2023-02-23T14:59:03.488Z,11.77
2023-02-23T15:01:47.388Z,9.73
2023-02-23T15:04:31.704Z,11.23
2023-02-23T15:07:25.283Z,10.67
2023-02-23T15:10:17.739Z,16.03
2023-02-23T15:13:02.606Z,9.77
2023-02-23T15:15:47.491Z,16.10
2023-02-23T15:18:34.709Z,16.00
2023-02-23T15:21:22.268Z,10.23
2023-02-23T15:24:12.772Z,10.50
2023-02-23T15:26:57.559Z,12.53
2023-02-23T15:29:41.326Z,14.33
2023-02-23T15:32:27.374Z,8.73
2023-02-23T15:35:13.373Z,16.70
2023-02-23T15:38:11.366Z,10.47
2023-02-23T15:41:02.786Z,12.53
2023-02-23T15:43:46.803Z,19.90
2023-02-23T15:46:32.730Z,18.07
2023-02-23T15:49:17.513Z,15.53
2023-02-23T15:52:04.075Z,14.13
2023-02-23T15:54:53.429Z,13.27
2023-02-23T15:57:48.683Z,10.93
2023-02-23T16:00:38.082Z,13.93
2023-02-23T16:03:25.354Z,9.60
2023-02-23T16:06:24.318Z,17.23
2023-02-23T16:09:21.057Z,12.73
2023-02-23T16:12:12.290Z,14.43
2023-02-23T16:15:01.438Z,19.07
2023-02-23T16:17:49.617Z,10.37
2023-02-23T16:20:41.515Z,11.63
2023-02-23T16:23:33.820Z,14.27
2023-02-23T16:26:24.440Z,11.37
2023-02-23T16:29:14.947Z,15.17
2023-02-23T16:32:02.402Z,17.27
2023-02-23T16:34:50.933Z,19.47
2023-02-23T16:37:34.683Z,15.10
2023-02-23T16:40:18.782Z,18.73
2023-02-23T16:43:02.847Z,13.03
2023-02-23T16:45:47.529Z,17.07
2023-02-23T16:48:32.820Z,11.37
2023-02-23T16:51:18.339Z,13.07
2023-02-23T16:54:04.507Z,16.63
2023-02-23T16:56:49.516Z,15.17
2023-02-23T16:59:34.370Z,11.27
2023-02-23T17:02:19.545Z,14.20
2023-02-23T17:05:13.492Z,12.87
2023-02-23T17:07:58.700Z,10.10
2023-02-23T17:10:44.972Z,13.63
2023-02-23T17:13:33.110Z,13.70
2023-02-23T17:16:16.966Z,10.70
2023-02-23T17:19:02.016Z,14.50
2023-02-23T17:21:47.270Z,15.47
2023-02-23T17:24:31.066Z,16.80
2023-02-23T17:27:14.836Z,11.10
2023-02-23T17:29:58.693Z,11.80
2023-02-23T17:32:42.886Z,11.87
2023-02-23T17:35:26.916Z,12.30
2023-02-23T17:38:12.474Z,15.57
2023-02-23T17:40:56.277Z,12.07
2023-02-23T17:43:40.042Z,14.60
2023-02-23T17:46:24.232Z,16.60
2023-02-23T17:49:08.196Z,14.13
2023-02-23T17:51:52.005Z,21.87
2023-02-23T17:54:37.248Z,11.50
2023-02-23T17:57:21.085Z,12.67
2023-02-23T18:00:07.309Z,14.13
2023-02-23T18:02:55.963Z,15.87
2023-02-23T18:05:39.842Z,13.47
2023-02-23T18:08:23.721Z,16.47
2023-02-23T18:11:09.573Z,15.33
2023-02-23T18:13:53.422Z,11.70
2023-02-23T18:16:37.264Z,11.37
2023-02-23T18:19:21.955Z,13.57
2023-02-23T18:22:05.964Z,11.60
2023-02-23T18:24:49.947Z,12.37
2023-02-23T18:27:35.313Z,14.90
2023-02-23T18:30:19.394Z,17.87
2023-02-23T18:33:03.338Z,12.57
2023-02-23T18:35:47.384Z,14.30
2023-02-23T18:38:31.472Z,12.50
2023-02-23T18:41:15.309Z,14.83
2023-02-23T18:44:01.699Z,17.57
2023-02-23T18:46:47.377Z,12.20
2023-02-23T18:49:31.219Z,14.80
2023-02-23T18:52:15.277Z,14.20
2023-02-23T18:54:59.471Z,13.70
2023-02-23T18:57:43.342Z,12.97
2023-02-23T19:00:33.017Z,19.60
2023-02-23T19:03:17.706Z,12.23
2023-02-23T19:06:01.564Z,12.33
2023-02-23T19:08:46.387Z,12.73
2023-02-23T19:11:32.787Z,14.57
2023-02-23T19:14:19.905Z,10.53
2023-02-23T19:17:06.134Z,11.30
2023-02-23T19:19:50.142Z,12.00
2023-02-23T19:22:34.148Z,16.90
2023-02-23T19:25:18.140Z,14.20
2023-02-23T19:28:02.456Z,16.03
2023-02-23T19:30:49.237Z,13.37
2023-02-23T19:33:35.106Z,13.70
2023-02-23T19:36:21.272Z,9.70
2023-02-23T19:39:10.546Z,17.03
2023-02-23T19:41:54.776Z,14.13
2023-02-23T19:44:38.780Z,13.97
2023-02-23T19:47:22.839Z,13.73
2023-02-23T19:50:09.891Z,12.27
2023-02-23T19:52:53.927Z,18.47
2023-02-23T19:55:37.764Z,12.47
2023-02-23T19:58:27.069Z,11.17
2023-02-23T20:01:14.745Z,14.03
2023-02-23T20:04:02.324Z,13.10
2023-02-23T20:06:48.037Z,11.87
2023-02-23T20:09:32.269Z,15.97
2023-02-23T20:12:16.183Z,11.87
2023-02-23T20:15:00.323Z,15.60
2023-02-23T20:17:44.245Z,12.67
2023-02-23T20:20:29.224Z,12.20
2023-02-23T20:23:14.610Z,7.97
2023-02-23T20:25:58.727Z,16.50
2023-02-23T20:28:43.493Z,15.50
2023-02-23T20:31:30.241Z,15.20
2023-02-23T20:34:14.723Z,13.53
2023-02-23T20:36:59.144Z,16.20
2023-02-23T20:39:44.952Z,18.63
2023-02-23T20:42:29.582Z,17.37
2023-02-23T20:45:14.455Z,10.27
2023-02-23T20:47:58.730Z,11.50
2023-02-23T20:50:43.682Z,15.67
2023-02-23T20:53:27.973Z,15.60
2023-02-23T20:56:13.635Z,10.87
2023-02-23T20:58:57.593Z,10.90
2023-02-23T21:01:44.366Z,11.10
2023-02-23T21:04:29.207Z,12.10
2023-02-23T21:07:14.173Z,13.63
2023-02-23T21:10:00.547Z,11.30
2023-02-23T21:12:45.727Z,10.37
2023-02-23T21:15:30.313Z,13.33
2023-02-23T21:18:14.292Z,10.33
2023-02-23T21:20:59.448Z,14.57
2023-02-23T21:23:44.868Z,14.33
2023-02-23T21:26:30.594Z,13.57
2023-02-23T21:29:16.705Z,13.60
2023-02-23T21:32:00.597Z,13.20
2023-02-23T21:34:45.966Z,15.40
2023-02-23T21:37:29.841Z,13.23
2023-02-23T21:40:17.296Z,17.60
2023-02-23T21:43:01.709Z,14.33
2023-02-23T21:45:47.001Z,14.53
2023-02-23T21:48:31.058Z,10.53
2023-02-23T21:51:16.992Z,14.90
2023-02-23T21:54:01.164Z,20.03
2023-02-23T21:56:45.208Z,10.47
2023-02-23T21:59:29.147Z,20.67
2023-02-23T22:02:14.433Z,17.10
2023-02-23T22:04:58.269Z,17.80
2023-02-23T22:07:42.322Z,15.70
2023-02-23T22:10:26.378Z,14.70
2023-02-23T22:13:10.295Z,17.33
2023-02-23T22:15:59.673Z,17.63
2023-02-23T22:18:44.873Z,17.50
2023-02-23T22:21:29.969Z,15.43
2023-02-23T22:24:15.110Z,11.77
2023-02-23T22:27:01.082Z,13.40
2023-02-23T22:29:45.136Z,14.50
2023-02-23T22:32:33.120Z,10.80
2023-02-23T22:35:19.040Z,13.20
2023-02-23T22:38:05.450Z,9.97
2023-02-23T22:40:49.460Z,12.17
2023-02-23T22:43:34.535Z,14.80
2023-02-23T22:46:18.695Z,10.97
2023-02-23T22:49:02.594Z,19.00
2023-02-23T22:55:09.056Z,12.97
2023-02-23T22:57:53.240Z,12.73
2023-02-23T23:00:37.609Z,11.17
2023-02-23T23:03:21.570Z,14.27
2023-02-23T23:06:08.220Z,13.50
2023-02-23T23:08:57.082Z,10.93
2023-02-23T23:11:42.881Z,15.03
2023-02-23T23:14:27.625Z,12.17
2023-02-23T23:17:11.803Z,13.43
2023-02-23T23:19:56.122Z,10.90
2023-02-23T23:22:40.040Z,12.23
2023-02-23T23:25:26.097Z,12.17
2023-02-23T23:28:14.551Z,11.00
2023-02-23T23:30:58.566Z,9.80
2023-02-23T23:33:47.870Z,12.07
2023-02-23T23:36:33.845Z,17.00
2023-02-23T23:39:20.450Z,9.83
2023-02-23T23:42:06.211Z,13.77
2023-02-23T23:44:50.931Z,14.37
2023-02-23T23:47:35.134Z,13.67
2023-02-23T23:50:21.261Z,15.27
2023-02-23T23:53:05.858Z,9.00
2023-02-23T23:55:50.370Z,16.43
2023-02-23T23:58:36.902Z,10.00
